Huntington, California
Current Conditions -  °F | °C
As of 6:53 PM on Friday 24 Oct 2014 (Local Time) from KSNA Reporting Station
Clear Clear  
Wind Chill: 76°   Ceiling: Unl
Heat Index: 76°   Visibility: 9mi
Dew Point: 62°   Wind: 0mph
Humidity: 62%   Direction: NA
Pressure: 29.93"   Gusts: NA
Location:  33.6654°N, 117.968°W
Report Text: KSNA 250153Z 00000KT 9SM CLR 24/17 A2993 RMK AO2 SLP134 T02440167
Loading
Personal Weather Stations






























Interactive Weather Map
Tropical Storm Tracking
New forecast layout! Learn more

10-Day Weather Forecast

Advertisements
Track Severe Weather on mobile